Etusivu
METAR-TAF:

METAR-TAF

Lentoasemat :

Stokmarknes, Norja

Stokmarknesin lentoasema

Leveyspiiri: 68-35N, Pituuspiiri: 015-01E, korkeus merenpinnasta: 0 m

Tämänhetkinen sää

Tämä raportti tehtiin 49 minuuttia sitten, kello 11.50 UTC
Tuuli 12 kn luoteesta
Lämpötila 6°C
Kosteus 75%
Ilmanpaine 1019 hPa
Näkyvyys 10 km tai enemmän
Muutamia pilviä 2000 ft:n korkeudessa
Hajonneita pilviä 3300 ft:n korkeudessa
heikkoja vesikuuroja

METAR: ENSK 191150Z 32012KT 9999 -SHRA FEW020 BKN033 06/02 Q1019

Aika: 14:39 (12:39 UTC)


TAF: puuttuu

Säähavainnot ja -ennusteet yli 4000 lentoasemalta (METAR- ja TAF-raportit).

Käytössä olevat sääasemat on merkitty karttaan keltaisilla ja punaisilla pisteillä.

Aseta hiiri pisteen päälle nähdäksesi sääaseman nimen.

Klikkaa sitten nähdäksesi säähavainnot ja -ennusteet.

Kartan vaihtaminen: klikkaa mustalla rastilla varustettuja vihreitä pisteitä, niin voit zoomata sisään; viivalla varustettua vihreää pistettä, niin voit zoomata ulos tai vihreitä nuolia, niin pääset viereisille kartoille.


METAR-TAF: